sensor_id;sensor_type;location;lat;lon;timestamp;P1;durP1;ratioP1;P2;durP2;ratioP2
57395;SDS011;43222;52.912;6.940;2022-10-16T00:01:08;7.95;;;2.20;;
57395;SDS011;43222;52.912;6.940;2022-10-16T00:03:36;9.15;;;2.35;;
57395;SDS011;43222;52.912;6.940;2022-10-16T00:06:02;12.95;;;2.65;;
57395;SDS011;43222;52.912;6.940;2022-10-16T00:08:28;10.05;;;2.35;;
57395;SDS011;43222;52.912;6.940;2022-10-16T00:11:03;11.60;;;2.47;;
57395;SDS011;43222;52.912;6.940;2022-10-16T00:13:30;11.18;;;2.30;;
57395;SDS011;43222;52.912;6.940;2022-10-16T00:15:56;9.25;;;2.20;;
57395;SDS011;43222;52.912;6.940;2022-10-16T00:18:23;10.90;;;2.58;;
57395;SDS011;43222;52.912;6.940;2022-10-16T00:20:49;11.07;;;2.90;;
57395;SDS011;43222;52.912;6.940;2022-10-16T00:23:15;7.55;;;1.98;;
57395;SDS011;43222;52.912;6.940;2022-10-16T00:25:41;8.98;;;2.17;;
57395;SDS011;43222;52.912;6.940;2022-10-16T00:28:07;8.23;;;2.30;;
57395;SDS011;43222;52.912;6.940;2022-10-16T00:30:33;9.20;;;2.20;;
57395;SDS011;43222;52.912;6.940;2022-10-16T00:32:59;9.38;;;2.00;;
57395;SDS011;43222;52.912;6.940;2022-10-16T00:35:25;7.45;;;2.17;;
57395;SDS011;43222;52.912;6.940;2022-10-16T00:37:51;8.85;;;2.15;;
57395;SDS011;43222;52.912;6.940;2022-10-16T00:40:17;8.77;;;2.30;;
57395;SDS011;43222;52.912;6.940;2022-10-16T00:42:43;9.18;;;2.20;;
57395;SDS011;43222;52.912;6.940;2022-10-16T00:45:09;8.23;;;2.00;;
57395;SDS011;43222;52.912;6.940;2022-10-16T00:50:04;9.15;;;2.20;;
57395;SDS011;43222;52.912;6.940;2022-10-16T00:52:32;10.07;;;2.30;;
57395;SDS011;43222;52.912;6.940;2022-10-16T00:54:59;10.00;;;2.15;;
57395;SDS011;43222;52.912;6.940;2022-10-16T00:57:25;6.93;;;2.58;;
57395;SDS011;43222;52.912;6.940;2022-10-16T00:59:51;9.65;;;2.33;;
57395;SDS011;43222;52.912;6.940;2022-10-16T01:02:18;10.93;;;2.45;;
57395;SDS011;43222;52.912;6.940;2022-10-16T01:04:48;9.45;;;2.20;;
57395;SDS011;43222;52.912;6.940;2022-10-16T01:14:53;7.93;;;2.40;;
57395;SDS011;43222;52.912;6.940;2022-10-16T01:17:22;7.90;;;2.70;;
57395;SDS011;43222;52.912;6.940;2022-10-16T01:19:55;11.02;;;2.90;;
57395;SDS011;43222;52.912;6.940;2022-10-16T01:22:26;7.32;;;2.85;;
57395;SDS011;43222;52.912;6.940;2022-10-16T01:24:57;10.60;;;2.78;;
57395;SDS011;43222;52.912;6.940;2022-10-16T01:27:28;11.60;;;3.00;;
57395;SDS011;43222;52.912;6.940;2022-10-16T01:30:01;8.10;;;3.08;;
57395;SDS011;43222;52.912;6.940;2022-10-16T01:32:40;9.00;;;2.75;;
57395;SDS011;43222;52.912;6.940;2022-10-16T01:35:14;8.23;;;3.00;;
57395;SDS011;43222;52.912;6.940;2022-10-16T01:37:46;8.25;;;3.03;;
57395;SDS011;43222;52.912;6.940;2022-10-16T01:40:13;8.52;;;2.88;;
57395;SDS011;43222;52.912;6.940;2022-10-16T01:42:41;7.65;;;3.05;;
57395;SDS011;43222;52.912;6.940;2022-10-16T01:45:08;8.15;;;2.78;;
57395;SDS011;43222;52.912;6.940;2022-10-16T01:47:36;8.88;;;2.78;;
57395;SDS011;43222;52.912;6.940;2022-10-16T01:50:03;9.38;;;2.70;;
57395;SDS011;43222;52.912;6.940;2022-10-16T01:52:30;11.43;;;3.10;;
57395;SDS011;43222;52.912;6.940;2022-10-16T01:54:57;8.27;;;2.83;;
57395;SDS011;43222;52.912;6.940;2022-10-16T01:57:26;6.18;;;2.60;;
57395;SDS011;43222;52.912;6.940;2022-10-16T01:59:53;7.72;;;2.50;;
57395;SDS011;43222;52.912;6.940;2022-10-16T02:02:20;9.18;;;2.58;;
57395;SDS011;43222;52.912;6.940;2022-10-16T02:04:55;9.35;;;3.05;;
57395;SDS011;43222;52.912;6.940;2022-10-16T02:07:22;9.10;;;2.70;;
57395;SDS011;43222;52.912;6.940;2022-10-16T02:09:49;9.05;;;3.00;;
57395;SDS011;43222;52.912;6.940;2022-10-16T02:12:21;8.52;;;2.58;;
57395;SDS011;43222;52.912;6.940;2022-10-16T02:14:49;10.48;;;3.10;;
57395;SDS011;43222;52.912;6.940;2022-10-16T02:17:16;12.00;;;2.72;;
57395;SDS011;43222;52.912;6.940;2022-10-16T02:19:42;10.40;;;2.58;;
57395;SDS011;43222;52.912;6.940;2022-10-16T02:22:15;7.90;;;2.70;;
57395;SDS011;43222;52.912;6.940;2022-10-16T02:27:13;9.40;;;2.97;;
57395;SDS011;43222;52.912;6.940;2022-10-16T02:29:42;7.10;;;2.60;;
57395;SDS011;43222;52.912;6.940;2022-10-16T02:32:10;7.85;;;3.08;;
57395;SDS011;43222;52.912;6.940;2022-10-16T02:34:38;8.55;;;2.83;;
57395;SDS011;43222;52.912;6.940;2022-10-16T02:37:05;8.93;;;2.67;;
57395;SDS011;43222;52.912;6.940;2022-10-16T02:39:32;8.40;;;2.50;;
57395;SDS011;43222;52.912;6.940;2022-10-16T02:41:58;7.53;;;2.47;;
57395;SDS011;43222;52.912;6.940;2022-10-16T02:44:24;7.82;;;2.42;;
57395;SDS011;43222;52.912;6.940;2022-10-16T02:46:50;6.63;;;2.30;;
57395;SDS011;43222;52.912;6.940;2022-10-16T02:49:16;8.00;;;2.42;;
57395;SDS011;43222;52.912;6.940;2022-10-16T02:51:43;7.90;;;2.47;;
57395;SDS011;43222;52.912;6.940;2022-10-16T02:54:09;7.45;;;2.55;;
57395;SDS011;43222;52.912;6.940;2022-10-16T02:56:35;7.22;;;2.55;;
57395;SDS011;43222;52.912;6.940;2022-10-16T02:59:01;7.20;;;2.50;;
57395;SDS011;43222;52.912;6.940;2022-10-16T03:01:27;6.65;;;2.20;;
57395;SDS011;43222;52.912;6.940;2022-10-16T03:03:53;9.15;;;2.50;;
57395;SDS011;43222;52.912;6.940;2022-10-16T03:06:19;6.32;;;2.40;;
57395;SDS011;43222;52.912;6.940;2022-10-16T03:08:45;5.78;;;2.30;;
57395;SDS011;43222;52.912;6.940;2022-10-16T03:11:11;6.85;;;2.40;;
57395;SDS011;43222;52.912;6.940;2022-10-16T03:13:37;8.65;;;2.45;;
57395;SDS011;43222;52.912;6.940;2022-10-16T03:16:03;7.65;;;2.50;;
57395;SDS011;43222;52.912;6.940;2022-10-16T03:18:29;6.68;;;2.20;;
57395;SDS011;43222;52.912;6.940;2022-10-16T03:20:55;7.65;;;2.40;;
57395;SDS011;43222;52.912;6.940;2022-10-16T03:23:21;6.70;;;2.50;;
57395;SDS011;43222;52.912;6.940;2022-10-16T03:25:47;8.00;;;2.20;;
57395;SDS011;43222;52.912;6.940;2022-10-16T03:28:13;8.82;;;2.50;;
57395;SDS011;43222;52.912;6.940;2022-10-16T03:30:39;8.25;;;2.38;;
57395;SDS011;43222;52.912;6.940;2022-10-16T03:33:05;9.30;;;2.70;;
57395;SDS011;43222;52.912;6.940;2022-10-16T03:35:32;8.90;;;2.30;;
57395;SDS011;43222;52.912;6.940;2022-10-16T03:37:58;7.60;;;2.38;;
57395;SDS011;43222;52.912;6.940;2022-10-16T03:40:24;6.40;;;2.33;;
57395;SDS011;43222;52.912;6.940;2022-10-16T03:42:50;8.93;;;2.53;;
57395;SDS011;43222;52.912;6.940;2022-10-16T03:45:16;9.05;;;2.47;;
57395;SDS011;43222;52.912;6.940;2022-10-16T03:47:42;5.47;;;2.55;;
57395;SDS011;43222;52.912;6.940;2022-10-16T03:50:08;7.80;;;2.55;;
57395;SDS011;43222;52.912;6.940;2022-10-16T03:52:34;6.63;;;2.55;;
57395;SDS011;43222;52.912;6.940;2022-10-16T03:55:00;5.38;;;2.80;;
57395;SDS011;43222;52.912;6.940;2022-10-16T03:57:26;8.38;;;2.80;;
57395;SDS011;43222;52.912;6.940;2022-10-16T03:59:52;8.68;;;2.95;;
57395;SDS011;43222;52.912;6.940;2022-10-16T04:02:18;6.72;;;3.30;;
57395;SDS011;43222;52.912;6.940;2022-10-16T04:04:44;7.32;;;2.67;;
57395;SDS011;43222;52.912;6.940;2022-10-16T04:07:10;7.20;;;2.85;;
57395;SDS011;43222;52.912;6.940;2022-10-16T04:09:36;7.32;;;2.85;;
57395;SDS011;43222;52.912;6.940;2022-10-16T04:12:02;6.47;;;3.00;;
57395;SDS011;43222;52.912;6.940;2022-10-16T04:14:28;6.78;;;2.85;;
57395;SDS011;43222;52.912;6.940;2022-10-16T04:16:54;6.95;;;2.90;;
57395;SDS011;43222;52.912;6.940;2022-10-16T04:19:20;6.70;;;2.92;;
57395;SDS011;43222;52.912;6.940;2022-10-16T04:21:46;8.65;;;3.03;;
57395;SDS011;43222;52.912;6.940;2022-10-16T04:24:12;6.53;;;2.95;;
57395;SDS011;43222;52.912;6.940;2022-10-16T04:26:38;5.05;;;2.78;;
57395;SDS011;43222;52.912;6.940;2022-10-16T04:29:04;7.47;;;3.20;;
57395;SDS011;43222;52.912;6.940;2022-10-16T04:31:32;8.00;;;3.08;;
57395;SDS011;43222;52.912;6.940;2022-10-16T04:33:58;8.07;;;3.08;;
57395;SDS011;43222;52.912;6.940;2022-10-16T04:36:24;7.13;;;3.28;;
57395;SDS011;43222;52.912;6.940;2022-10-16T04:38:49;7.78;;;3.40;;
57395;SDS011;43222;52.912;6.940;2022-10-16T04:41:15;11.25;;;3.33;;
57395;SDS011;43222;52.912;6.940;2022-10-16T04:43:41;8.88;;;3.42;;
57395;SDS011;43222;52.912;6.940;2022-10-16T04:46:07;10.50;;;3.40;;
57395;SDS011;43222;52.912;6.940;2022-10-16T04:48:35;7.60;;;3.72;;
57395;SDS011;43222;52.912;6.940;2022-10-16T04:51:01;7.45;;;3.80;;
57395;SDS011;43222;52.912;6.940;2022-10-16T04:53:27;9.32;;;3.83;;
57395;SDS011;43222;52.912;6.940;2022-10-16T04:55:53;8.35;;;3.63;;
57395;SDS011;43222;52.912;6.940;2022-10-16T04:58:19;10.40;;;4.00;;
57395;SDS011;43222;52.912;6.940;2022-10-16T05:00:45;7.93;;;3.92;;
57395;SDS011;43222;52.912;6.940;2022-10-16T05:03:12;10.60;;;4.00;;
57395;SDS011;43222;52.912;6.940;2022-10-16T05:05:41;8.63;;;4.40;;
57395;SDS011;43222;52.912;6.940;2022-10-16T05:08:08;10.38;;;4.15;;
57395;SDS011;43222;52.912;6.940;2022-10-16T05:10:34;7.15;;;4.00;;
57395;SDS011;43222;52.912;6.940;2022-10-16T05:13:00;8.45;;;3.70;;
57395;SDS011;43222;52.912;6.940;2022-10-16T05:15:26;7.05;;;4.22;;
57395;SDS011;43222;52.912;6.940;2022-10-16T05:17:53;7.15;;;4.10;;
57395;SDS011;43222;52.912;6.940;2022-10-16T05:20:20;7.97;;;3.90;;
57395;SDS011;43222;52.912;6.940;2022-10-16T05:22:46;6.38;;;3.55;;
57395;SDS011;43222;52.912;6.940;2022-10-16T05:25:12;8.18;;;4.10;;
57395;SDS011;43222;52.912;6.940;2022-10-16T05:27:38;9.35;;;3.88;;
57395;SDS011;43222;52.912;6.940;2022-10-16T05:30:04;9.00;;;3.70;;
57395;SDS011;43222;52.912;6.940;2022-10-16T05:32:30;10.60;;;4.38;;
57395;SDS011;43222;52.912;6.940;2022-10-16T05:34:56;7.80;;;3.88;;
57395;SDS011;43222;52.912;6.940;2022-10-16T05:37:24;8.50;;;3.75;;
57395;SDS011;43222;52.912;6.940;2022-10-16T05:39:50;8.43;;;3.80;;
57395;SDS011;43222;52.912;6.940;2022-10-16T05:42:16;7.47;;;4.10;;
57395;SDS011;43222;52.912;6.940;2022-10-16T05:44:43;8.35;;;4.32;;
57395;SDS011;43222;52.912;6.940;2022-10-16T05:47:09;8.20;;;4.18;;
57395;SDS011;43222;52.912;6.940;2022-10-16T05:49:35;6.97;;;3.60;;
57395;SDS011;43222;52.912;6.940;2022-10-16T05:52:02;8.52;;;4.07;;
57395;SDS011;43222;52.912;6.940;2022-10-16T05:54:28;11.63;;;4.07;;
57395;SDS011;43222;52.912;6.940;2022-10-16T05:56:54;12.70;;;4.15;;
57395;SDS011;43222;52.912;6.940;2022-10-16T05:59:20;10.90;;;4.50;;
57395;SDS011;43222;52.912;6.940;2022-10-16T06:01:46;9.75;;;3.78;;
57395;SDS011;43222;52.912;6.940;2022-10-16T06:04:12;7.95;;;3.85;;
57395;SDS011;43222;52.912;6.940;2022-10-16T06:06:38;8.38;;;3.88;;
57395;SDS011;43222;52.912;6.940;2022-10-16T06:09:04;7.72;;;4.07;;
57395;SDS011;43222;52.912;6.940;2022-10-16T06:11:31;7.30;;;3.90;;
57395;SDS011;43222;52.912;6.940;2022-10-16T06:13:58;9.48;;;3.92;;
57395;SDS011;43222;52.912;6.940;2022-10-16T06:16:27;6.13;;;3.60;;
57395;SDS011;43222;52.912;6.940;2022-10-16T06:18:53;7.28;;;3.35;;
57395;SDS011;43222;52.912;6.940;2022-10-16T06:21:21;7.47;;;3.10;;
57395;SDS011;43222;52.912;6.940;2022-10-16T06:23:49;8.52;;;3.53;;
57395;SDS011;43222;52.912;6.940;2022-10-16T06:26:17;7.75;;;3.13;;
57395;SDS011;43222;52.912;6.940;2022-10-16T06:28:43;8.88;;;3.50;;
57395;SDS011;43222;52.912;6.940;2022-10-16T06:31:09;9.48;;;3.60;;
57395;SDS011;43222;52.912;6.940;2022-10-16T06:33:36;9.07;;;3.05;;
57395;SDS011;43222;52.912;6.940;2022-10-16T06:36:06;8.40;;;3.05;;
57395;SDS011;43222;52.912;6.940;2022-10-16T06:38:33;8.77;;;3.53;;
57395;SDS011;43222;52.912;6.940;2022-10-16T06:41:00;8.73;;;3.05;;
57395;SDS011;43222;52.912;6.940;2022-10-16T06:43:26;6.35;;;2.72;;
57395;SDS011;43222;52.912;6.940;2022-10-16T06:45:57;9.02;;;2.97;;
57395;SDS011;43222;52.912;6.940;2022-10-16T06:48:23;8.40;;;3.42;;
57395;SDS011;43222;52.912;6.940;2022-10-16T06:50:56;11.57;;;3.03;;
57395;SDS011;43222;52.912;6.940;2022-10-16T06:53:22;6.22;;;2.88;;
57395;SDS011;43222;52.912;6.940;2022-10-16T06:55:48;5.80;;;2.50;;
57395;SDS011;43222;52.912;6.940;2022-10-16T06:58:14;5.55;;;2.58;;
57395;SDS011;43222;52.912;6.940;2022-10-16T07:00:40;5.95;;;2.60;;
57395;SDS011;43222;52.912;6.940;2022-10-16T07:03:07;7.35;;;2.80;;
57395;SDS011;43222;52.912;6.940;2022-10-16T07:05:37;8.82;;;2.83;;
57395;SDS011;43222;52.912;6.940;2022-10-16T07:08:03;5.82;;;2.47;;
57395;SDS011;43222;52.912;6.940;2022-10-16T07:10:30;6.30;;;2.78;;
57395;SDS011;43222;52.912;6.940;2022-10-16T07:12:56;8.40;;;2.60;;
57395;SDS011;43222;52.912;6.940;2022-10-16T07:15:22;9.80;;;2.80;;
57395;SDS011;43222;52.912;6.940;2022-10-16T07:17:49;7.93;;;2.70;;
57395;SDS011;43222;52.912;6.940;2022-10-16T07:20:15;9.25;;;2.88;;
57395;SDS011;43222;52.912;6.940;2022-10-16T07:22:41;9.88;;;2.80;;
57395;SDS011;43222;52.912;6.940;2022-10-16T07:25:07;8.10;;;2.72;;
57395;SDS011;43222;52.912;6.940;2022-10-16T07:27:34;7.00;;;2.55;;
57395;SDS011;43222;52.912;6.940;2022-10-16T07:30:00;6.90;;;2.65;;
57395;SDS011;43222;52.912;6.940;2022-10-16T07:32:26;9.75;;;3.00;;
57395;SDS011;43222;52.912;6.940;2022-10-16T07:34:52;7.15;;;2.65;;
57395;SDS011;43222;52.912;6.940;2022-10-16T07:37:20;7.03;;;2.63;;
57395;SDS011;43222;52.912;6.940;2022-10-16T07:39:46;10.85;;;2.40;;
57395;SDS011;43222;52.912;6.940;2022-10-16T07:42:12;11.30;;;2.85;;
57395;SDS011;43222;52.912;6.940;2022-10-16T07:44:38;7.32;;;2.60;;
57395;SDS011;43222;52.912;6.940;2022-10-16T07:47:06;7.03;;;2.58;;
57395;SDS011;43222;52.912;6.940;2022-10-16T07:49:32;6.72;;;2.63;;
57395;SDS011;43222;52.912;6.940;2022-10-16T07:51:58;8.70;;;2.97;;
57395;SDS011;43222;52.912;6.940;2022-10-16T07:54:24;9.23;;;3.17;;
57395;SDS011;43222;52.912;6.940;2022-10-16T07:56:50;11.45;;;2.65;;
57395;SDS011;43222;52.912;6.940;2022-10-16T07:59:16;6.82;;;2.65;;
57395;SDS011;43222;52.912;6.940;2022-10-16T08:01:42;8.25;;;2.53;;
57395;SDS011;43222;52.912;6.940;2022-10-16T08:04:08;7.03;;;2.58;;
57395;SDS011;43222;52.912;6.940;2022-10-16T08:06:36;7.90;;;2.85;;
57395;SDS011;43222;52.912;6.940;2022-10-16T08:09:02;6.53;;;2.35;;
57395;SDS011;43222;52.912;6.940;2022-10-16T08:11:29;7.18;;;2.70;;
57395;SDS011;43222;52.912;6.940;2022-10-16T08:13:55;9.70;;;2.47;;
57395;SDS011;43222;52.912;6.940;2022-10-16T08:16:21;10.38;;;2.90;;
57395;SDS011;43222;52.912;6.940;2022-10-16T08:18:47;10.80;;;3.45;;
57395;SDS011;43222;52.912;6.940;2022-10-16T08:21:14;7.13;;;2.70;;
57395;SDS011;43222;52.912;6.940;2022-10-16T08:23:41;7.80;;;2.88;;
57395;SDS011;43222;52.912;6.940;2022-10-16T08:26:07;7.60;;;2.25;;
57395;SDS011;43222;52.912;6.940;2022-10-16T08:28:33;8.38;;;2.80;;
57395;SDS011;43222;52.912;6.940;2022-10-16T08:31:10;5.72;;;2.53;;
57395;SDS011;43222;52.912;6.940;2022-10-16T08:33:36;8.98;;;2.33;;
57395;SDS011;43222;52.912;6.940;2022-10-16T08:36:04;6.68;;;2.00;;
57395;SDS011;43222;52.912;6.940;2022-10-16T08:38:30;7.10;;;2.10;;
57395;SDS011;43222;52.912;6.940;2022-10-16T08:41:46;6.80;;;2.28;;
57395;SDS011;43222;52.912;6.940;2022-10-16T08:43:43;5.68;;;1.83;;
57395;SDS011;43222;52.912;6.940;2022-10-16T08:48:53;5.57;;;1.58;;
57395;SDS011;43222;52.912;6.940;2022-10-16T08:51:26;10.05;;;2.22;;
57395;SDS011;43222;52.912;6.940;2022-10-16T08:53:54;5.32;;;1.55;;
57395;SDS011;43222;52.912;6.940;2022-10-16T08:56:21;6.75;;;1.60;;
57395;SDS011;43222;52.912;6.940;2022-10-16T08:58:47;8.23;;;1.80;;
57395;SDS011;43222;52.912;6.940;2022-10-16T09:01:14;8.68;;;2.58;;
57395;SDS011;43222;52.912;6.940;2022-10-16T09:03:54;6.00;;;2.10;;
57395;SDS011;43222;52.912;6.940;2022-10-16T09:12:00;8.32;;;1.75;;
57395;SDS011;43222;52.912;6.940;2022-10-16T09:14:23;6.45;;;1.88;;
57395;SDS011;43222;52.912;6.940;2022-10-16T09:16:59;7.20;;;1.70;;
57395;SDS011;43222;52.912;6.940;2022-10-16T09:19:28;7.75;;;1.90;;
57395;SDS011;43222;52.912;6.940;2022-10-16T09:21:57;9.55;;;2.28;;
57395;SDS011;43222;52.912;6.940;2022-10-16T09:24:25;6.22;;;1.60;;
57395;SDS011;43222;52.912;6.940;2022-10-16T09:26:51;5.13;;;1.65;;
57395;SDS011;43222;52.912;6.940;2022-10-16T09:29:18;8.98;;;1.85;;
57395;SDS011;43222;52.912;6.940;2022-10-16T09:31:49;7.15;;;1.85;;
57395;SDS011;43222;52.912;6.940;2022-10-16T09:36:49;12.65;;;1.80;;
57395;SDS011;43222;52.912;6.940;2022-10-16T09:39:15;8.98;;;1.70;;
57395;SDS011;43222;52.912;6.940;2022-10-16T09:41:42;7.57;;;1.98;;
57395;SDS011;43222;52.912;6.940;2022-10-16T09:44:42;9.88;;;1.80;;
57395;SDS011;43222;52.912;6.940;2022-10-16T09:49:28;10.80;;;2.28;;
57395;SDS011;43222;52.912;6.940;2022-10-16T09:52:11;10.05;;;2.03;;
57395;SDS011;43222;52.912;6.940;2022-10-16T09:54:37;8.55;;;1.70;;
57395;SDS011;43222;52.912;6.940;2022-10-16T09:57:14;9.82;;;2.00;;
57395;SDS011;43222;52.912;6.940;2022-10-16T09:59:50;9.80;;;1.70;;
57395;SDS011;43222;52.912;6.940;2022-10-16T10:02:17;8.45;;;1.77;;
57395;SDS011;43222;52.912;6.940;2022-10-16T10:04:50;12.05;;;1.77;;
57395;SDS011;43222;52.912;6.940;2022-10-16T10:09:51;10.27;;;2.05;;
57395;SDS011;43222;52.912;6.940;2022-10-16T10:12:22;10.63;;;1.90;;
57395;SDS011;43222;52.912;6.940;2022-10-16T10:17:22;11.13;;;2.15;;
57395;SDS011;43222;52.912;6.940;2022-10-16T10:19:59;13.77;;;2.13;;
57395;SDS011;43222;52.912;6.940;2022-10-16T10:22:27;10.73;;;1.88;;
57395;SDS011;43222;52.912;6.940;2022-10-16T10:25:41;8.85;;;2.00;;
57395;SDS011;43222;52.912;6.940;2022-10-16T10:30:27;10.10;;;2.13;;
57395;SDS011;43222;52.912;6.940;2022-10-16T10:43:20;10.88;;;2.00;;
57395;SDS011;43222;52.912;6.940;2022-10-16T10:45:52;17.10;;;2.17;;
57395;SDS011;43222;52.912;6.940;2022-10-16T10:48:39;12.10;;;2.30;;
57395;SDS011;43222;52.912;6.940;2022-10-16T10:51:13;15.75;;;2.30;;
57395;SDS011;43222;52.912;6.940;2022-10-16T10:56:43;12.52;;;1.90;;
57395;SDS011;43222;52.912;6.940;2022-10-16T11:01:56;11.85;;;2.17;;
57395;SDS011;43222;52.912;6.940;2022-10-16T11:04:39;13.73;;;2.10;;
57395;SDS011;43222;52.912;6.940;2022-10-16T11:07:32;11.18;;;1.90;;
57395;SDS011;43222;52.912;6.940;2022-10-16T11:09:59;11.68;;;1.88;;
57395;SDS011;43222;52.912;6.940;2022-10-16T11:12:35;10.55;;;1.90;;
57395;SDS011;43222;52.912;6.940;2022-10-16T11:15:04;11.80;;;2.33;;
57395;SDS011;43222;52.912;6.940;2022-10-16T11:17:34;12.07;;;1.95;;
57395;SDS011;43222;52.912;6.940;2022-10-16T11:25:18;14.43;;;2.25;;
57395;SDS011;43222;52.912;6.940;2022-10-16T11:28:01;12.40;;;2.40;;
57395;SDS011;43222;52.912;6.940;2022-10-16T11:30:29;10.95;;;1.85;;
57395;SDS011;43222;52.912;6.940;2022-10-16T11:37:59;9.27;;;1.40;;
57395;SDS011;43222;52.912;6.940;2022-10-16T11:40:31;13.27;;;2.20;;
57395;SDS011;43222;52.912;6.940;2022-10-16T11:43:17;12.18;;;2.35;;
57395;SDS011;43222;52.912;6.940;2022-10-16T11:45:51;10.98;;;2.25;;
57395;SDS011;43222;52.912;6.940;2022-10-16T11:48:21;14.10;;;2.28;;
57395;SDS011;43222;52.912;6.940;2022-10-16T11:50:50;8.57;;;2.08;;
57395;SDS011;43222;52.912;6.940;2022-10-16T11:56:02;16.60;;;2.10;;
57395;SDS011;43222;52.912;6.940;2022-10-16T11:58:30;12.20;;;1.90;;
57395;SDS011;43222;52.912;6.940;2022-10-16T12:03:42;12.38;;;2.17;;
57395;SDS011;43222;52.912;6.940;2022-10-16T12:08:38;10.73;;;1.98;;
57395;SDS011;43222;52.912;6.940;2022-10-16T12:13:49;9.73;;;1.90;;
57395;SDS011;43222;52.912;6.940;2022-10-16T12:18:45;8.43;;;1.67;;
57395;SDS011;43222;52.912;6.940;2022-10-16T12:21:12;13.50;;;2.05;;
57395;SDS011;43222;52.912;6.940;2022-10-16T12:23:50;12.75;;;1.95;;
57395;SDS011;43222;52.912;6.940;2022-10-16T12:28:51;10.00;;;1.80;;
57395;SDS011;43222;52.912;6.940;2022-10-16T12:31:18;8.32;;;1.48;;
57395;SDS011;43222;52.912;6.940;2022-10-16T12:34:00;9.68;;;2.42;;
57395;SDS011;43222;52.912;6.940;2022-10-16T12:36:30;13.20;;;2.10;;
57395;SDS011;43222;52.912;6.940;2022-10-16T12:38:57;11.40;;;2.13;;
57395;SDS011;43222;52.912;6.940;2022-10-16T12:41:24;10.20;;;2.10;;
57395;SDS011;43222;52.912;6.940;2022-10-16T12:43:51;13.43;;;1.90;;
57395;SDS011;43222;52.912;6.940;2022-10-16T12:48:44;10.32;;;1.63;;
57395;SDS011;43222;52.912;6.940;2022-10-16T12:51:25;11.00;;;2.00;;
57395;SDS011;43222;52.912;6.940;2022-10-16T12:54:15;10.30;;;2.00;;
57395;SDS011;43222;52.912;6.940;2022-10-16T12:59:32;10.02;;;2.17;;
57395;SDS011;43222;52.912;6.940;2022-10-16T13:04:55;10.55;;;2.25;;
57395;SDS011;43222;52.912;6.940;2022-10-16T13:07:34;12.25;;;3.40;;
57395;SDS011;43222;52.912;6.940;2022-10-16T13:15:27;11.23;;;2.88;;
57395;SDS011;43222;52.912;6.940;2022-10-16T13:18:06;9.05;;;1.90;;
57395;SDS011;43222;52.912;6.940;2022-10-16T13:20:51;10.32;;;2.50;;
57395;SDS011;43222;52.912;6.940;2022-10-16T13:24:20;14.75;;;3.40;;
57395;SDS011;43222;52.912;6.940;2022-10-16T13:26:58;10.70;;;2.20;;
57395;SDS011;43222;52.912;6.940;2022-10-16T13:29:04;10.98;;;1.92;;
57395;SDS011;43222;52.912;6.940;2022-10-16T13:31:30;8.63;;;1.63;;
57395;SDS011;43222;52.912;6.940;2022-10-16T13:33:57;13.10;;;2.88;;
57395;SDS011;43222;52.912;6.940;2022-10-16T13:36:28;10.52;;;1.60;;
57395;SDS011;43222;52.912;6.940;2022-10-16T13:39:28;10.40;;;1.90;;
57395;SDS011;43222;52.912;6.940;2022-10-16T13:41:46;11.85;;;2.13;;
57395;SDS011;43222;52.912;6.940;2022-10-16T13:44:23;13.25;;;1.98;;
57395;SDS011;43222;52.912;6.940;2022-10-16T13:46:57;15.13;;;2.10;;
57395;SDS011;43222;52.912;6.940;2022-10-16T13:49:24;14.57;;;2.28;;
57395;SDS011;43222;52.912;6.940;2022-10-16T13:51:59;12.23;;;2.13;;
57395;SDS011;43222;52.912;6.940;2022-10-16T13:54:26;9.23;;;1.95;;
57395;SDS011;43222;52.912;6.940;2022-10-16T13:56:56;9.80;;;1.83;;
57395;SDS011;43222;52.912;6.940;2022-10-16T13:59:23;9.68;;;1.90;;
57395;SDS011;43222;52.912;6.940;2022-10-16T14:01:50;12.70;;;1.90;;
57395;SDS011;43222;52.912;6.940;2022-10-16T14:04:17;11.75;;;2.05;;
57395;SDS011;43222;52.912;6.940;2022-10-16T14:06:45;12.23;;;2.20;;
57395;SDS011;43222;52.912;6.940;2022-10-16T14:11:51;12.65;;;2.38;;
57395;SDS011;43222;52.912;6.940;2022-10-16T14:14:18;12.50;;;2.25;;
57395;SDS011;43222;52.912;6.940;2022-10-16T14:16:45;15.95;;;2.30;;
57395;SDS011;43222;52.912;6.940;2022-10-16T14:19:27;13.50;;;1.90;;
57395;SDS011;43222;52.912;6.940;2022-10-16T14:21:53;9.13;;;1.48;;
57395;SDS011;43222;52.912;6.940;2022-10-16T14:24:34;11.43;;;2.03;;
57395;SDS011;43222;52.912;6.940;2022-10-16T14:27:01;12.40;;;2.08;;
57395;SDS011;43222;52.912;6.940;2022-10-16T14:29:28;9.95;;;2.00;;
57395;SDS011;43222;52.912;6.940;2022-10-16T14:32:05;10.27;;;2.00;;
57395;SDS011;43222;52.912;6.940;2022-10-16T14:34:35;13.30;;;2.80;;
57395;SDS011;43222;52.912;6.940;2022-10-16T14:37:23;14.57;;;2.70;;
57395;SDS011;43222;52.912;6.940;2022-10-16T14:39:51;10.05;;;2.22;;
57395;SDS011;43222;52.912;6.940;2022-10-16T14:42:18;8.48;;;2.00;;
57395;SDS011;43222;52.912;6.940;2022-10-16T14:44:45;14.05;;;2.13;;
57395;SDS011;43222;52.912;6.940;2022-10-16T14:47:15;12.35;;;2.10;;
57395;SDS011;43222;52.912;6.940;2022-10-16T14:49:47;11.95;;;2.28;;
57395;SDS011;43222;52.912;6.940;2022-10-16T14:52:13;13.82;;;2.30;;
57395;SDS011;43222;52.912;6.940;2022-10-16T14:54:40;10.77;;;1.63;;
57395;SDS011;43222;52.912;6.940;2022-10-16T14:57:13;9.38;;;2.05;;
57395;SDS011;43222;52.912;6.940;2022-10-16T14:59:41;10.35;;;2.17;;
57395;SDS011;43222;52.912;6.940;2022-10-16T15:04:44;9.43;;;1.75;;
57395;SDS011;43222;52.912;6.940;2022-10-16T15:07:10;10.75;;;1.80;;
57395;SDS011;43222;52.912;6.940;2022-10-16T15:09:36;10.68;;;1.70;;
57395;SDS011;43222;52.912;6.940;2022-10-16T15:12:02;11.27;;;1.65;;
57395;SDS011;43222;52.912;6.940;2022-10-16T15:14:29;11.32;;;1.90;;
57395;SDS011;43222;52.912;6.940;2022-10-16T15:16:55;10.00;;;2.35;;
57395;SDS011;43222;52.912;6.940;2022-10-16T15:19:21;10.60;;;2.10;;
57395;SDS011;43222;52.912;6.940;2022-10-16T15:21:47;9.30;;;1.90;;
57395;SDS011;43222;52.912;6.940;2022-10-16T15:24:13;9.98;;;1.95;;
57395;SDS011;43222;52.912;6.940;2022-10-16T15:26:39;10.63;;;2.40;;
57395;SDS011;43222;52.912;6.940;2022-10-16T15:29:05;13.65;;;2.13;;
57395;SDS011;43222;52.912;6.940;2022-10-16T15:31:32;11.73;;;1.95;;
57395;SDS011;43222;52.912;6.940;2022-10-16T15:33:58;11.32;;;2.17;;
57395;SDS011;43222;52.912;6.940;2022-10-16T15:36:30;9.90;;;2.10;;
57395;SDS011;43222;52.912;6.940;2022-10-16T15:38:56;12.15;;;2.25;;
57395;SDS011;43222;52.912;6.940;2022-10-16T15:41:22;8.65;;;2.05;;
57395;SDS011;43222;52.912;6.940;2022-10-16T15:43:49;9.82;;;1.85;;
57395;SDS011;43222;52.912;6.940;2022-10-16T15:46:15;12.68;;;2.35;;
57395;SDS011;43222;52.912;6.940;2022-10-16T15:48:43;9.13;;;2.00;;
57395;SDS011;43222;52.912;6.940;2022-10-16T15:51:09;8.80;;;1.83;;
57395;SDS011;43222;52.912;6.940;2022-10-16T15:53:35;10.10;;;2.10;;
57395;SDS011;43222;52.912;6.940;2022-10-16T15:56:05;11.57;;;2.28;;
57395;SDS011;43222;52.912;6.940;2022-10-16T15:58:31;10.43;;;2.00;;
57395;SDS011;43222;52.912;6.940;2022-10-16T16:00:58;13.23;;;5.80;;
57395;SDS011;43222;52.912;6.940;2022-10-16T16:03:28;13.70;;;6.53;;
57395;SDS011;43222;52.912;6.940;2022-10-16T16:05:54;13.95;;;4.32;;
57395;SDS011;43222;52.912;6.940;2022-10-16T16:08:21;7.97;;;1.95;;
57395;SDS011;43222;52.912;6.940;2022-10-16T16:10:57;11.88;;;2.63;;
57395;SDS011;43222;52.912;6.940;2022-10-16T16:13:23;11.15;;;2.47;;
57395;SDS011;43222;52.912;6.940;2022-10-16T16:15:49;13.18;;;2.42;;
57395;SDS011;43222;52.912;6.940;2022-10-16T16:18:15;9.23;;;1.88;;
57395;SDS011;43222;52.912;6.940;2022-10-16T16:20:41;11.60;;;2.08;;
57395;SDS011;43222;52.912;6.940;2022-10-16T16:23:07;8.00;;;1.95;;
57395;SDS011;43222;52.912;6.940;2022-10-16T16:25:33;8.35;;;1.90;;